sensor_id;sensor_type;location;lat;lon;timestamp;P1;durP1;ratioP1;P2;durP2;ratioP2
27424;SDS011;15244;49.088;11.886;2023-04-25T00:00:09;2.40;;;2.20;;
27424;SDS011;15244;49.088;11.886;2023-04-25T00:05:38;2.28;;;2.10;;
27424;SDS011;15244;49.088;11.886;2023-04-25T00:10:53;1.95;;;1.85;;
27424;SDS011;15244;49.088;11.886;2023-04-25T00:16:22;1.95;;;1.85;;
27424;SDS011;15244;49.088;11.886;2023-04-25T00:21:37;1.90;;;1.80;;
27424;SDS011;15244;49.088;11.886;2023-04-25T00:27:07;2.17;;;2.08;;
27424;SDS011;15244;49.088;11.886;2023-04-25T00:32:22;2.08;;;1.98;;
27424;SDS011;15244;49.088;11.886;2023-04-25T00:37:51;2.38;;;2.22;;
27424;SDS011;15244;49.088;11.886;2023-04-25T00:43:06;2.30;;;2.10;;
27424;SDS011;15244;49.088;11.886;2023-04-25T00:48:35;1.95;;;1.85;;
27424;SDS011;15244;49.088;11.886;2023-04-25T00:53:50;2.08;;;1.95;;
27424;SDS011;15244;49.088;11.886;2023-04-25T00:59:19;2.22;;;1.70;;
27424;SDS011;15244;49.088;11.886;2023-04-25T01:04:35;2.00;;;1.90;;
27424;SDS011;15244;49.088;11.886;2023-04-25T01:10:04;1.80;;;1.70;;
27424;SDS011;15244;49.088;11.886;2023-04-25T01:15:20;2.03;;;1.80;;
27424;SDS011;15244;49.088;11.886;2023-04-25T01:20:52;2.05;;;1.95;;
27424;SDS011;15244;49.088;11.886;2023-04-25T01:26:09;1.95;;;1.70;;
27424;SDS011;15244;49.088;11.886;2023-04-25T01:31:38;2.20;;;1.83;;
27424;SDS011;15244;49.088;11.886;2023-04-25T01:36:54;2.10;;;2.00;;
27424;SDS011;15244;49.088;11.886;2023-04-25T01:42:24;2.40;;;2.08;;
27424;SDS011;15244;49.088;11.886;2023-04-25T01:47:40;2.28;;;1.88;;
27424;SDS011;15244;49.088;11.886;2023-04-25T01:53:12;2.13;;;1.90;;
27424;SDS011;15244;49.088;11.886;2023-04-25T01:58:28;1.98;;;1.88;;
27424;SDS011;15244;49.088;11.886;2023-04-25T02:04:00;2.10;;;2.00;;
27424;SDS011;15244;49.088;11.886;2023-04-25T02:09:16;2.35;;;2.25;;
27424;SDS011;15244;49.088;11.886;2023-04-25T02:14:46;2.00;;;1.80;;
27424;SDS011;15244;49.088;11.886;2023-04-25T02:20:13;2.42;;;2.22;;
27424;SDS011;15244;49.088;11.886;2023-04-25T02:25:42;2.67;;;2.47;;
27424;SDS011;15244;49.088;11.886;2023-04-25T02:30:57;2.65;;;2.38;;
27424;SDS011;15244;49.088;11.886;2023-04-25T02:36:26;3.17;;;2.50;;
27424;SDS011;15244;49.088;11.886;2023-04-25T02:41:41;2.95;;;2.75;;
27424;SDS011;15244;49.088;11.886;2023-04-25T02:47:10;5.30;;;3.00;;
27424;SDS011;15244;49.088;11.886;2023-04-25T02:52:25;2.70;;;2.50;;
27424;SDS011;15244;49.088;11.886;2023-04-25T02:57:58;10.05;;;7.35;;
27424;SDS011;15244;49.088;11.886;2023-04-25T03:03:18;4.05;;;2.78;;
27424;SDS011;15244;49.088;11.886;2023-04-25T03:08:47;2.63;;;2.42;;
27424;SDS011;15244;49.088;11.886;2023-04-25T03:14:02;2.25;;;2.15;;
27424;SDS011;15244;49.088;11.886;2023-04-25T03:19:31;3.38;;;2.33;;
27424;SDS011;15244;49.088;11.886;2023-04-25T03:24:46;2.70;;;2.13;;
27424;SDS011;15244;49.088;11.886;2023-04-25T03:30:15;2.80;;;2.60;;
27424;SDS011;15244;49.088;11.886;2023-04-25T03:35:30;2.42;;;2.28;;
27424;SDS011;15244;49.088;11.886;2023-04-25T03:41:00;3.22;;;2.78;;
27424;SDS011;15244;49.088;11.886;2023-04-25T03:46:22;3.85;;;2.28;;
27424;SDS011;15244;49.088;11.886;2023-04-25T03:51:51;2.20;;;2.10;;
27424;SDS011;15244;49.088;11.886;2023-04-25T03:57:10;2.50;;;2.30;;
27424;SDS011;15244;49.088;11.886;2023-04-25T04:02:39;2.33;;;2.22;;
27424;SDS011;15244;49.088;11.886;2023-04-25T04:07:54;2.63;;;2.38;;
27424;SDS011;15244;49.088;11.886;2023-04-25T04:13:23;2.65;;;2.13;;
27424;SDS011;15244;49.088;11.886;2023-04-25T04:18:40;2.78;;;2.50;;
27424;SDS011;15244;49.088;11.886;2023-04-25T04:24:09;4.68;;;2.42;;
27424;SDS011;15244;49.088;11.886;2023-04-25T04:29:30;1.87;;;1.77;;
27424;SDS011;15244;49.088;11.886;2023-04-25T04:35:06;2.97;;;2.58;;
27424;SDS011;15244;49.088;11.886;2023-04-25T04:40:24;2.47;;;2.38;;
27424;SDS011;15244;49.088;11.886;2023-04-25T04:46:01;2.55;;;2.42;;
27424;SDS011;15244;49.088;11.886;2023-04-25T04:51:37;2.90;;;2.70;;
27424;SDS011;15244;49.088;11.886;2023-04-25T04:57:21;4.05;;;2.70;;
27424;SDS011;15244;49.088;11.886;2023-04-25T05:02:55;3.00;;;2.70;;
27424;SDS011;15244;49.088;11.886;2023-04-25T05:08:33;3.20;;;2.47;;
27424;SDS011;15244;49.088;11.886;2023-04-25T05:14:07;2.20;;;2.10;;
27424;SDS011;15244;49.088;11.886;2023-04-25T05:19:47;3.35;;;2.13;;
27424;SDS011;15244;49.088;11.886;2023-04-25T05:25:26;2.25;;;2.10;;
27424;SDS011;15244;49.088;11.886;2023-04-25T05:31:13;2.78;;;2.30;;
27424;SDS011;15244;49.088;11.886;2023-04-25T05:36:38;3.40;;;2.25;;
27424;SDS011;15244;49.088;11.886;2023-04-25T05:42:10;3.78;;;2.72;;
27424;SDS011;15244;49.088;11.886;2023-04-25T05:47:31;2.78;;;2.58;;
27424;SDS011;15244;49.088;11.886;2023-04-25T05:53:13;2.72;;;2.53;;
27424;SDS011;15244;49.088;11.886;2023-04-25T05:58:34;2.70;;;2.50;;
27424;SDS011;15244;49.088;11.886;2023-04-25T06:04:02;2.47;;;2.38;;
27424;SDS011;15244;49.088;11.886;2023-04-25T06:09:17;2.13;;;2.03;;
27424;SDS011;15244;49.088;11.886;2023-04-25T06:14:46;3.13;;;2.85;;
27424;SDS011;15244;49.088;11.886;2023-04-25T06:20:01;3.15;;;2.85;;
27424;SDS011;15244;49.088;11.886;2023-04-25T06:25:31;3.38;;;2.90;;
27424;SDS011;15244;49.088;11.886;2023-04-25T06:30:47;3.47;;;3.17;;
27424;SDS011;15244;49.088;11.886;2023-04-25T06:36:15;3.33;;;3.03;;
27424;SDS011;15244;49.088;11.886;2023-04-25T06:47:21;3.03;;;2.70;;
27424;SDS011;15244;49.088;11.886;2023-04-25T06:52:36;3.90;;;2.88;;
27424;SDS011;15244;49.088;11.886;2023-04-25T06:58:05;3.42;;;3.13;;
27424;SDS011;15244;49.088;11.886;2023-04-25T07:03:38;6.47;;;3.50;;
27424;SDS011;15244;49.088;11.886;2023-04-25T07:09:06;4.72;;;3.38;;
27424;SDS011;15244;49.088;11.886;2023-04-25T07:14:23;3.65;;;3.35;;
27424;SDS011;15244;49.088;11.886;2023-04-25T07:19:52;3.50;;;3.10;;
27424;SDS011;15244;49.088;11.886;2023-04-25T07:25:07;2.88;;;2.67;;
27424;SDS011;15244;49.088;11.886;2023-04-25T07:30:36;3.22;;;2.92;;
27424;SDS011;15244;49.088;11.886;2023-04-25T07:35:51;2.60;;;2.50;;
27424;SDS011;15244;49.088;11.886;2023-04-25T07:41:20;2.80;;;2.60;;
27424;SDS011;15244;49.088;11.886;2023-04-25T07:46:36;3.28;;;2.95;;
27424;SDS011;15244;49.088;11.886;2023-04-25T07:52:04;3.22;;;2.95;;
27424;SDS011;15244;49.088;11.886;2023-04-25T07:57:29;2.90;;;2.70;;
27424;SDS011;15244;49.088;11.886;2023-04-25T08:03:00;2.70;;;2.60;;
27424;SDS011;15244;49.088;11.886;2023-04-25T08:08:16;2.65;;;2.47;;
27424;SDS011;15244;49.088;11.886;2023-04-25T08:13:46;3.13;;;2.85;;
27424;SDS011;15244;49.088;11.886;2023-04-25T08:19:01;6.28;;;2.78;;
27424;SDS011;15244;49.088;11.886;2023-04-25T08:24:31;3.25;;;2.97;;
27424;SDS011;15244;49.088;11.886;2023-04-25T08:29:47;3.13;;;2.78;;
27424;SDS011;15244;49.088;11.886;2023-04-25T08:35:15;4.90;;;2.92;;
27424;SDS011;15244;49.088;11.886;2023-04-25T08:40:31;2.80;;;2.60;;
27424;SDS011;15244;49.088;11.886;2023-04-25T08:46:05;3.23;;;3.03;;
27424;SDS011;15244;49.088;11.886;2023-04-25T08:51:49;3.15;;;2.95;;
27424;SDS011;15244;49.088;11.886;2023-04-25T08:57:18;2.50;;;2.40;;
27424;SDS011;15244;49.088;11.886;2023-04-25T09:02:36;1.98;;;1.88;;
27424;SDS011;15244;49.088;11.886;2023-04-25T09:08:04;2.42;;;2.33;;
27424;SDS011;15244;49.088;11.886;2023-04-25T09:13:28;3.97;;;3.63;;
27424;SDS011;15244;49.088;11.886;2023-04-25T09:19:04;2.92;;;2.72;;
27424;SDS011;15244;49.088;11.886;2023-04-25T09:30:10;1.80;;;1.70;;
27424;SDS011;15244;49.088;11.886;2023-04-25T09:41:26;3.08;;;2.88;;
27424;SDS011;15244;49.088;11.886;2023-04-25T09:46:42;3.60;;;3.40;;
27424;SDS011;15244;49.088;11.886;2023-04-25T09:52:15;3.97;;;3.67;;
27424;SDS011;15244;49.088;11.886;2023-04-25T09:57:46;4.28;;;3.97;;
27424;SDS011;15244;49.088;11.886;2023-04-25T10:03:19;5.05;;;4.57;;
27424;SDS011;15244;49.088;11.886;2023-04-25T10:08:52;5.18;;;4.78;;
27424;SDS011;15244;49.088;11.886;2023-04-25T10:14:20;5.13;;;4.55;;
27424;SDS011;15244;49.088;11.886;2023-04-25T10:19:36;4.90;;;4.40;;
27424;SDS011;15244;49.088;11.886;2023-04-25T10:25:05;3.47;;;3.17;;
27424;SDS011;15244;49.088;11.886;2023-04-25T10:30:35;2.75;;;2.55;;
27424;SDS011;15244;49.088;11.886;2023-04-25T10:35:50;2.45;;;2.28;;
27424;SDS011;15244;49.088;11.886;2023-04-25T10:41:19;3.03;;;2.40;;
27424;SDS011;15244;49.088;11.886;2023-04-25T10:46:36;2.53;;;2.33;;
27424;SDS011;15244;49.088;11.886;2023-04-25T10:57:31;3.03;;;1.80;;
27424;SDS011;15244;49.088;11.886;2023-04-25T11:03:06;2.75;;;1.90;;
27424;SDS011;15244;49.088;11.886;2023-04-25T11:08:23;2.78;;;2.10;;
27424;SDS011;15244;49.088;11.886;2023-04-25T11:14:06;2.85;;;2.03;;
27424;SDS011;15244;49.088;11.886;2023-04-25T11:19:22;2.92;;;2.60;;
27424;SDS011;15244;49.088;11.886;2023-04-25T11:24:51;2.33;;;2.13;;
27424;SDS011;15244;49.088;11.886;2023-04-25T11:30:10;2.72;;;2.42;;
27424;SDS011;15244;49.088;11.886;2023-04-25T11:35:40;2.15;;;1.65;;
27424;SDS011;15244;49.088;11.886;2023-04-25T11:40:56;2.38;;;2.28;;
27424;SDS011;15244;49.088;11.886;2023-04-25T11:46:25;2.92;;;2.72;;
27424;SDS011;15244;49.088;11.886;2023-04-25T11:57:11;3.33;;;2.28;;
27424;SDS011;15244;49.088;11.886;2023-04-25T12:02:26;1.90;;;1.67;;
27424;SDS011;15244;49.088;11.886;2023-04-25T12:07:55;1.80;;;1.70;;
27424;SDS011;15244;49.088;11.886;2023-04-25T12:13:20;2.25;;;1.73;;
27424;SDS011;15244;49.088;11.886;2023-04-25T12:18:51;2.25;;;2.05;;
27424;SDS011;15244;49.088;11.886;2023-04-25T12:24:17;2.40;;;2.30;;
27424;SDS011;15244;49.088;11.886;2023-04-25T12:29:54;2.28;;;2.15;;
27424;SDS011;15244;49.088;11.886;2023-04-25T12:35:10;3.40;;;2.35;;
27424;SDS011;15244;49.088;11.886;2023-04-25T12:40:39;2.10;;;2.00;;
27424;SDS011;15244;49.088;11.886;2023-04-25T12:45:55;4.03;;;2.13;;
27424;SDS011;15244;49.088;11.886;2023-04-25T12:51:23;2.20;;;2.10;;
27424;SDS011;15244;49.088;11.886;2023-04-25T12:56:40;2.75;;;2.50;;
27424;SDS011;15244;49.088;11.886;2023-04-25T13:02:09;2.65;;;2.45;;
27424;SDS011;15244;49.088;11.886;2023-04-25T13:07:38;3.15;;;2.95;;
27424;SDS011;15244;49.088;11.886;2023-04-25T13:12:53;3.05;;;2.85;;
27424;SDS011;15244;49.088;11.886;2023-04-25T13:18:22;2.53;;;2.40;;
27424;SDS011;15244;49.088;11.886;2023-04-25T13:23:40;2.40;;;2.20;;
27424;SDS011;15244;49.088;11.886;2023-04-25T13:29:09;2.17;;;2.03;;
27424;SDS011;15244;49.088;11.886;2023-04-25T13:34:24;3.67;;;1.90;;
27424;SDS011;15244;49.088;11.886;2023-04-25T13:39:53;2.53;;;1.70;;
27424;SDS011;15244;49.088;11.886;2023-04-25T13:45:09;2.45;;;1.80;;
27424;SDS011;15244;49.088;11.886;2023-04-25T13:50:38;2.83;;;1.50;;
27424;SDS011;15244;49.088;11.886;2023-04-25T13:55:53;2.90;;;1.38;;
27424;SDS011;15244;49.088;11.886;2023-04-25T14:01:22;1.48;;;1.38;;
27424;SDS011;15244;49.088;11.886;2023-04-25T14:06:52;1.70;;;1.60;;
27424;SDS011;15244;49.088;11.886;2023-04-25T14:12:07;2.08;;;1.42;;
27424;SDS011;15244;49.088;11.886;2023-04-25T14:17:36;1.52;;;1.25;;
27424;SDS011;15244;49.088;11.886;2023-04-25T14:22:51;1.10;;;1.00;;
27424;SDS011;15244;49.088;11.886;2023-04-25T14:28:20;2.58;;;1.10;;
27424;SDS011;15244;49.088;11.886;2023-04-25T14:33:35;0.95;;;0.95;;
27424;SDS011;15244;49.088;11.886;2023-04-25T14:39:04;1.42;;;1.33;;
27424;SDS011;15244;49.088;11.886;2023-04-25T14:44:22;0.90;;;0.90;;
27424;SDS011;15244;49.088;11.886;2023-04-25T14:49:51;0.70;;;0.70;;
27424;SDS011;15244;49.088;11.886;2023-04-25T14:55:08;0.90;;;0.90;;
27424;SDS011;15244;49.088;11.886;2023-04-25T15:00:37;2.25;;;1.13;;
27424;SDS011;15244;49.088;11.886;2023-04-25T15:05:53;1.15;;;1.15;;
27424;SDS011;15244;49.088;11.886;2023-04-25T15:11:23;0.95;;;0.95;;
27424;SDS011;15244;49.088;11.886;2023-04-25T15:16:38;1.60;;;1.42;;
27424;SDS011;15244;49.088;11.886;2023-04-25T15:22:07;1.40;;;0.90;;
27424;SDS011;15244;49.088;11.886;2023-04-25T15:27:22;1.25;;;1.25;;
27424;SDS011;15244;49.088;11.886;2023-04-25T15:32:52;1.65;;;1.40;;
27424;SDS011;15244;49.088;11.886;2023-04-25T15:38:07;1.17;;;1.10;;
27424;SDS011;15244;49.088;11.886;2023-04-25T15:43:36;1.23;;;1.10;;
27424;SDS011;15244;49.088;11.886;2023-04-25T15:48:52;2.13;;;1.35;;
27424;SDS011;15244;49.088;11.886;2023-04-25T15:54:21;1.27;;;1.20;;
27424;SDS011;15244;49.088;11.886;2023-04-25T15:59:36;1.65;;;1.30;;
27424;SDS011;15244;49.088;11.886;2023-04-25T16:05:05;1.98;;;1.70;;
27424;SDS011;15244;49.088;11.886;2023-04-25T16:10:20;1.65;;;1.50;;
27424;SDS011;15244;49.088;11.886;2023-04-25T16:15:49;2.40;;;1.70;;
27424;SDS011;15244;49.088;11.886;2023-04-25T16:21:04;1.83;;;1.73;;
27424;SDS011;15244;49.088;11.886;2023-04-25T16:26:36;1.58;;;1.48;;
27424;SDS011;15244;49.088;11.886;2023-04-25T16:31:51;2.60;;;1.60;;
27424;SDS011;15244;49.088;11.886;2023-04-25T16:37:20;2.22;;;1.48;;
27424;SDS011;15244;49.088;11.886;2023-04-25T16:42:35;1.48;;;1.38;;
27424;SDS011;15244;49.088;11.886;2023-04-25T16:48:04;1.63;;;1.52;;
27424;SDS011;15244;49.088;11.886;2023-04-25T16:53:19;1.90;;;1.67;;
27424;SDS011;15244;49.088;11.886;2023-04-25T16:58:48;1.80;;;1.70;;
27424;SDS011;15244;49.088;11.886;2023-04-25T17:04:03;1.58;;;1.40;;
27424;SDS011;15244;49.088;11.886;2023-04-25T17:09:32;3.58;;;1.80;;
27424;SDS011;15244;49.088;11.886;2023-04-25T17:14:47;1.88;;;1.42;;
27424;SDS011;15244;49.088;11.886;2023-04-25T17:20:16;2.22;;;1.77;;
27424;SDS011;15244;49.088;11.886;2023-04-25T17:25:31;2.08;;;1.88;;
27424;SDS011;15244;49.088;11.886;2023-04-25T17:31:00;1.45;;;1.35;;
27424;SDS011;15244;49.088;11.886;2023-04-25T17:36:15;1.90;;;1.48;;
27424;SDS011;15244;49.088;11.886;2023-04-25T17:41:44;2.00;;;1.90;;
27424;SDS011;15244;49.088;11.886;2023-04-25T17:46:59;2.38;;;1.90;;
27424;SDS011;15244;49.088;11.886;2023-04-25T17:52:28;2.10;;;2.00;;
27424;SDS011;15244;49.088;11.886;2023-04-25T17:57:43;2.25;;;2.05;;
27424;SDS011;15244;49.088;11.886;2023-04-25T18:03:12;2.17;;;2.05;;
27424;SDS011;15244;49.088;11.886;2023-04-25T18:08:41;1.92;;;1.83;;
27424;SDS011;15244;49.088;11.886;2023-04-25T18:13:58;2.90;;;1.77;;
27424;SDS011;15244;49.088;11.886;2023-04-25T18:19:28;1.45;;;1.40;;
27424;SDS011;15244;49.088;11.886;2023-04-25T18:24:43;2.13;;;1.80;;
27424;SDS011;15244;49.088;11.886;2023-04-25T18:30:12;1.55;;;1.55;;
27424;SDS011;15244;49.088;11.886;2023-04-25T18:35:27;4.30;;;1.90;;
27424;SDS011;15244;49.088;11.886;2023-04-25T18:41:12;1.58;;;1.48;;
27424;SDS011;15244;49.088;11.886;2023-04-25T18:46:47;2.13;;;1.95;;
27424;SDS011;15244;49.088;11.886;2023-04-25T18:52:16;2.10;;;2.00;;
27424;SDS011;15244;49.088;11.886;2023-04-25T18:57:32;2.17;;;1.98;;
27424;SDS011;15244;49.088;11.886;2023-04-25T19:03:01;2.47;;;1.92;;
27424;SDS011;15244;49.088;11.886;2023-04-25T19:08:30;3.60;;;1.98;;
27424;SDS011;15244;49.088;11.886;2023-04-25T19:13:45;2.22;;;2.03;;
27424;SDS011;15244;49.088;11.886;2023-04-25T19:19:18;2.22;;;2.00;;
27424;SDS011;15244;49.088;11.886;2023-04-25T19:24:33;2.15;;;1.58;;
27424;SDS011;15244;49.088;11.886;2023-04-25T19:30:16;4.05;;;2.17;;
27424;SDS011;15244;49.088;11.886;2023-04-25T19:35:31;1.88;;;1.70;;
27424;SDS011;15244;49.088;11.886;2023-04-25T19:41:00;2.75;;;1.67;;
27424;SDS011;15244;49.088;11.886;2023-04-25T19:46:15;1.60;;;1.50;;
27424;SDS011;15244;49.088;11.886;2023-04-25T19:51:44;1.85;;;1.75;;
27424;SDS011;15244;49.088;11.886;2023-04-25T19:56:59;3.78;;;1.75;;
27424;SDS011;15244;49.088;11.886;2023-04-25T20:02:28;2.28;;;1.60;;
27424;SDS011;15244;49.088;11.886;2023-04-25T20:07:43;2.05;;;1.70;;
27424;SDS011;15244;49.088;11.886;2023-04-25T20:13:12;1.75;;;1.65;;
27424;SDS011;15244;49.088;11.886;2023-04-25T20:18:27;2.22;;;2.05;;
27424;SDS011;15244;49.088;11.886;2023-04-25T20:23:56;2.40;;;2.20;;
27424;SDS011;15244;49.088;11.886;2023-04-25T20:29:11;2.60;;;2.40;;
27424;SDS011;15244;49.088;11.886;2023-04-25T20:34:40;2.50;;;2.30;;
27424;SDS011;15244;49.088;11.886;2023-04-25T20:39:56;3.28;;;2.70;;
27424;SDS011;15244;49.088;11.886;2023-04-25T20:45:26;3.55;;;2.50;;
27424;SDS011;15244;49.088;11.886;2023-04-25T20:50:45;2.85;;;2.30;;
27424;SDS011;15244;49.088;11.886;2023-04-25T20:56:14;1.95;;;1.85;;
27424;SDS011;15244;49.088;11.886;2023-04-25T21:01:30;2.28;;;2.08;;
27424;SDS011;15244;49.088;11.886;2023-04-25T21:07:07;3.78;;;3.47;;
27424;SDS011;15244;49.088;11.886;2023-04-25T21:12:36;5.50;;;5.00;;
27424;SDS011;15244;49.088;11.886;2023-04-25T21:17:51;5.32;;;3.30;;
27424;SDS011;15244;49.088;11.886;2023-04-25T21:23:20;4.10;;;2.55;;
27424;SDS011;15244;49.088;11.886;2023-04-25T21:28:35;2.90;;;2.60;;
27424;SDS011;15244;49.088;11.886;2023-04-25T21:34:04;3.80;;;2.97;;
27424;SDS011;15244;49.088;11.886;2023-04-25T21:39:20;5.03;;;2.70;;
27424;SDS011;15244;49.088;11.886;2023-04-25T21:44:49;2.95;;;2.67;;
27424;SDS011;15244;49.088;11.886;2023-04-25T21:50:04;3.60;;;2.72;;
27424;SDS011;15244;49.088;11.886;2023-04-25T21:55:33;3.50;;;2.63;;
27424;SDS011;15244;49.088;11.886;2023-04-25T22:00:48;2.30;;;2.17;;
27424;SDS011;15244;49.088;11.886;2023-04-25T22:06:17;2.92;;;2.70;;
27424;SDS011;15244;49.088;11.886;2023-04-25T22:11:32;5.15;;;2.63;;
27424;SDS011;15244;49.088;11.886;2023-04-25T22:17:03;3.45;;;2.72;;
27424;SDS011;15244;49.088;11.886;2023-04-25T22:22:19;4.28;;;2.47;;
27424;SDS011;15244;49.088;11.886;2023-04-25T22:27:48;4.78;;;2.50;;
27424;SDS011;15244;49.088;11.886;2023-04-25T22:33:04;4.45;;;2.38;;
27424;SDS011;15244;49.088;11.886;2023-04-25T22:38:33;5.05;;;2.40;;
27424;SDS011;15244;49.088;11.886;2023-04-25T22:43:48;4.13;;;2.53;;
27424;SDS011;15244;49.088;11.886;2023-04-25T22:49:17;5.07;;;2.97;;
27424;SDS011;15244;49.088;11.886;2023-04-25T22:54:32;4.07;;;2.40;;
27424;SDS011;15244;49.088;11.886;2023-04-25T23:00:01;5.38;;;2.90;;
27424;SDS011;15244;49.088;11.886;2023-04-25T23:05:21;3.00;;;2.80;;
27424;SDS011;15244;49.088;11.886;2023-04-25T23:10:51;3.85;;;3.10;;
27424;SDS011;15244;49.088;11.886;2023-04-25T23:16:06;4.13;;;2.70;;
27424;SDS011;15244;49.088;11.886;2023-04-25T23:21:36;3.30;;;2.70;;
27424;SDS011;15244;49.088;11.886;2023-04-25T23:26:51;5.68;;;3.15;;
27424;SDS011;15244;49.088;11.886;2023-04-25T23:32:20;4.28;;;2.70;;
27424;SDS011;15244;49.088;11.886;2023-04-25T23:37:35;3.88;;;3.50;;
27424;SDS011;15244;49.088;11.886;2023-04-25T23:43:05;4.47;;;2.92;;
27424;SDS011;15244;49.088;11.886;2023-04-25T23:48:20;4.68;;;2.88;;
27424;SDS011;15244;49.088;11.886;2023-04-25T23:53:49;5.07;;;3.22;;
27424;SDS011;15244;49.088;11.886;2023-04-25T23:59:04;3.55;;;3.03;;
